Time;durP1;ratioP1;P1;durP2;ratioP2;P2;SDS_P1;SDS_P2;PMS_P1;PMS_P2;Temp;Humidity;BMP_temperature;BMP_pressure;BME280_temperature;BME280_humidity;BME280_pressure;Samples;Min_cycle;Max_cycle;Signal;HPM_P1;HPM_P2
2021/06/05 00:00:45;;;;;;;64.13;37.50;;;17.90;99.90;;;;;;5032048;28;20448;-69
2021/06/05 00:03:14;;;;;;;59.10;39.27;;;17.90;99.90;;;;;;5031874;28;20821;-69
2021/06/05 00:05:44;;;;;;;62.27;40.53;;;17.90;99.90;;;;;;5031760;28;20476;-70
2021/06/05 00:08:11;;;;;;;66.20;40.43;;;18.00;99.90;;;;;;5031949;28;20445;-69
2021/06/05 00:10:41;;;;;;;61.13;40.13;;;17.90;99.90;;;;;;5032034;28;20445;-70
2021/06/05 00:13:11;;;;;;;61.13;38.23;;;17.90;99.90;;;;;;5032118;28;20464;-69
2021/06/05 00:15:41;;;;;;;67.93;40.33;;;18.00;99.90;;;;;;5031755;28;20500;-70
2021/06/05 00:18:07;;;;;;;61.53;40.63;;;18.00;99.90;;;;;;5031949;28;20815;-69
2021/06/05 00:20:33;;;;;;;61.27;41.53;;;18.00;99.90;;;;;;5032105;28;20812;-70
2021/06/05 00:23:01;;;;;;;64.00;43.30;;;18.00;99.90;;;;;;5031967;28;21125;-69
2021/06/05 00:25:30;;;;;;;71.27;38.70;;;18.00;99.90;;;;;;5031768;28;20960;-69
2021/06/05 00:27:58;;;;;;;58.93;36.07;;;18.00;99.90;;;;;;5031893;28;20948;-69
2021/06/05 00:30:25;;;;;;;62.47;40.50;;;18.00;99.90;;;;;;5032056;28;20457;-70
2021/06/05 00:32:52;;;;;;;63.70;41.30;;;18.10;99.90;;;;;;5032147;28;20449;-70
2021/06/05 00:35:19;;;;;;;68.70;41.37;;;18.10;99.90;;;;;;5031661;28;20449;-69
2021/06/05 00:37:45;;;;;;;62.50;37.80;;;18.10;99.90;;;;;;5031893;28;20441;-70
2021/06/05 00:40:14;;;;;;;64.70;40.30;;;18.20;99.90;;;;;;5031921;28;20810;-69
2021/06/05 00:42:40;;;;;;;67.70;43.10;;;18.20;99.90;;;;;;5031845;28;20444;-69
2021/06/05 00:45:11;;;;;;;57.80;40.83;;;18.30;99.90;;;;;;5031773;28;20448;-69
2021/06/05 00:47:37;;;;;;;59.40;42.50;;;18.30;99.90;;;;;;5062821;23;20559;-63
2021/06/05 00:50:05;;;;;;;61.60;39.33;;;18.30;99.90;;;;;;5015324;28;20440;-64
2021/06/05 00:52:31;;;;;;;54.60;38.57;;;18.40;99.90;;;;;;5031506;28;20464;-63
2021/06/05 00:54:57;;;;;;;59.70;40.97;;;18.50;99.90;;;;;;5031574;28;20445;-63
2021/06/05 00:57:24;;;;;;;61.77;37.87;;;18.50;99.90;;;;;;5031046;28;20488;-64
2021/06/05 00:59:51;;;;;;;56.50;36.47;;;18.60;99.90;;;;;;5031417;28;20453;-64
2021/06/05 01:02:18;;;;;;;56.33;39.70;;;18.60;99.90;;;;;;5031284;28;20456;-64
2021/06/05 01:04:45;;;;;;;57.23;38.70;;;18.60;99.90;;;;;;5031488;28;20455;-64
2021/06/05 01:07:20;;;;;;;47.03;35.23;;;18.60;99.90;;;;;;5030981;28;21022;-64
2021/06/05 01:09:57;;;;;;;50.33;35.30;;;18.60;99.90;;;;;;5031468;28;20855;-64
2021/06/05 01:12:30;;;;;;;51.00;37.20;;;18.60;99.90;;;;;;5031570;28;20502;-64
2021/06/05 01:15:01;;;;;;;48.87;35.60;;;18.60;99.90;;;;;;5031666;28;20445;-64
2021/06/05 01:17:31;;;;;;;46.97;35.37;;;18.60;99.90;;;;;;5034958;28;20488;-64
2021/06/05 01:20:04;;;;;;;48.10;33.93;;;18.70;99.90;;;;;;5035227;28;20499;-63
2021/06/05 01:22:46;;;;;;;50.00;35.37;;;18.70;99.90;;;;;;5035178;28;20433;-64
2021/06/05 01:25:43;;;;;;;58.83;40.53;;;18.60;99.90;;;;;;5035117;28;20535;-64
2021/06/05 01:28:13;;;;;;;46.90;37.33;;;18.50;99.90;;;;;;5034986;28;20452;-63
2021/06/05 01:30:43;;;;;;;45.23;35.93;;;18.50;99.90;;;;;;5034978;28;20445;-64
2021/06/05 01:33:11;;;;;;;45.97;36.87;;;18.50;99.90;;;;;;5034811;28;20456;-63
2021/06/05 01:35:38;;;;;;;43.10;34.20;;;18.40;99.90;;;;;;5034551;28;20492;-63
2021/06/05 01:38:05;;;;;;;45.30;33.10;;;18.40;99.90;;;;;;5034720;28;20448;-64
2021/06/05 01:40:32;;;;;;;49.07;34.20;;;18.30;99.90;;;;;;5034843;28;20503;-63
2021/06/05 01:43:03;;;;;;;49.20;34.97;;;18.20;99.90;;;;;;5034721;28;20445;-64
2021/06/05 01:45:34;;;;;;;46.17;33.30;;;18.10;99.90;;;;;;5034534;28;20452;-63
2021/06/05 01:48:00;;;;;;;42.30;32.73;;;18.10;99.90;;;;;;5034763;28;20441;-63
2021/06/05 01:50:29;;;;;;;41.57;31.90;;;18.00;99.90;;;;;;5034727;28;20450;-64
2021/06/05 01:52:58;;;;;;;39.57;31.57;;;17.90;99.90;;;;;;5034616;28;21153;-64
2021/06/05 01:55:30;;;;;;;38.67;32.50;;;17.80;99.90;;;;;;5034494;28;20437;-64
2021/06/05 01:58:01;;;;;;;39.57;31.60;;;17.70;99.90;;;;;;5034194;28;20448;-64
2021/06/05 02:00:33;;;;;;;42.87;34.10;;;17.70;99.90;;;;;;5034411;28;20848;-64
2021/06/05 02:02:59;;;;;;;41.97;32.10;;;17.60;99.90;;;;;;5034220;28;20455;-63
2021/06/05 02:05:28;;;;;;;42.80;31.87;;;17.60;99.90;;;;;;5034188;28;20861;-63
2021/06/05 02:07:55;;;;;;;52.77;34.47;;;17.60;99.90;;;;;;5034124;28;20508;-63
2021/06/05 02:10:23;;;;;;;45.23;32.57;;;17.50;99.90;;;;;;5034172;28;20441;-64
2021/06/05 02:12:51;;;;;;;43.67;31.07;;;17.50;99.90;;;;;;5034060;28;20452;-62
2021/06/05 02:15:23;;;;;;;54.27;35.43;;;17.40;99.90;;;;;;5034100;28;20809;-64
2021/06/05 02:17:51;;;;;;;46.60;30.97;;;17.40;99.90;;;;;;5033936;28;21003;-64
2021/06/05 02:20:23;;;;;;;48.50;31.30;;;17.40;99.90;;;;;;5034095;28;20449;-64
2021/06/05 02:22:51;;;;;;;60.60;37.30;;;17.30;99.90;;;;;;5034178;28;20956;-63
2021/06/05 02:25:21;;;;;;;52.50;32.27;;;17.30;99.90;;;;;;5033722;28;20452;-64
2021/06/05 02:27:50;;;;;;;47.30;34.30;;;17.20;99.90;;;;;;5033303;28;20465;-64
2021/06/05 02:30:19;;;;;;;52.63;33.63;;;17.20;99.90;;;;;;5033520;28;20452;-63
2021/06/05 02:32:45;;;;;;;50.03;34.30;;;17.20;99.90;;;;;;5033942;28;20445;-63
2021/06/05 02:35:17;;;;;;;50.77;32.77;;;17.10;99.90;;;;;;5033933;28;20460;-64
2021/06/05 02:37:46;;;;;;;59.47;36.47;;;17.10;99.90;;;;;;5033591;28;20492;-64
2021/06/05 02:40:16;;;;;;;63.47;36.50;;;17.00;99.90;;;;;;5034454;28;20475;-64
2021/06/05 02:42:43;;;;;;;53.63;35.40;;;17.00;99.90;;;;;;5033545;28;20518;-65
2021/06/05 02:45:16;;;;;;;55.83;37.50;;;17.00;99.90;;;;;;5033818;28;20453;-65
2021/06/05 02:47:53;;;;;;;64.33;40.20;;;17.10;99.90;;;;;;5033444;28;20472;-66
2021/06/05 02:50:21;;;;;;;61.33;38.30;;;17.20;99.90;;;;;;5033458;28;20444;-67
2021/06/05 02:52:47;;;;;;;51.83;34.47;;;17.20;99.90;;;;;;5033312;28;20495;-65
2021/06/05 02:55:16;;;;;;;59.27;36.03;;;17.20;99.90;;;;;;5033491;28;20444;-66
2021/06/05 02:57:43;;;;;;;61.80;38.07;;;17.20;99.90;;;;;;5032938;28;20485;-67
2021/06/05 03:00:12;;;;;;;59.33;38.53;;;17.20;99.90;;;;;;5033203;28;20445;-67
2021/06/05 03:02:39;;;;;;;53.47;37.10;;;17.10;99.90;;;;;;5033393;28;20828;-67
2021/06/05 03:05:06;;;;;;;53.93;38.03;;;17.10;99.90;;;;;;5033232;28;20440;-65
2021/06/05 03:07:34;;;;;;;54.43;36.40;;;17.00;99.90;;;;;;5032822;28;20465;-65
2021/06/05 03:10:01;;;;;;;52.57;36.40;;;17.00;99.90;;;;;;5032931;28;20895;-65
2021/06/05 03:12:27;;;;;;;53.33;35.33;;;17.00;99.90;;;;;;5033106;28;20453;-67
2021/06/05 03:14:54;;;;;;;64.63;39.93;;;17.10;99.90;;;;;;5033003;28;20449;-68
2021/06/05 03:17:20;;;;;;;62.77;38.83;;;17.20;99.90;;;;;;5032707;28;20972;-66
2021/06/05 03:19:46;;;;;;;51.67;37.87;;;17.20;99.90;;;;;;5032557;28;20498;-66
2021/06/05 03:22:12;;;;;;;59.23;40.67;;;17.30;99.90;;;;;;5032995;28;20472;-66
2021/06/05 03:24:40;;;;;;;59.57;41.00;;;17.40;99.90;;;;;;5032251;28;20449;-65
2021/06/05 03:27:07;;;;;;;60.67;38.43;;;17.40;99.90;;;;;;5032420;28;20461;-66
2021/06/05 03:29:33;;;;;;;57.70;37.23;;;17.50;99.90;;;;;;5033894;28;20500;-66
2021/06/05 03:32:00;;;;;;;56.67;37.77;;;17.60;99.90;;;;;;5032571;28;21002;-67
2021/06/05 03:34:26;;;;;;;54.87;37.80;;;17.70;99.90;;;;;;5032737;28;20448;-67
2021/06/05 03:36:52;;;;;;;60.93;41.47;;;17.70;99.90;;;;;;5032120;28;20558;-66
2021/06/05 03:39:19;;;;;;;60.23;42.53;;;17.80;99.90;;;;;;5031874;28;20475;-67
2021/06/05 03:41:46;;;;;;;51.67;38.00;;;17.80;99.90;;;;;;5032292;28;20441;-67
2021/06/05 03:44:14;;;;;;;55.97;40.97;;;17.90;99.90;;;;;;5032393;28;20449;-67
2021/06/05 03:46:41;;;;;;;53.23;39.87;;;17.90;99.90;;;;;;5032160;28;20490;-67
2021/06/05 03:49:09;;;;;;;59.30;40.77;;;18.00;99.90;;;;;;5032493;28;20468;-66
2021/06/05 03:51:35;;;;;;;55.10;39.80;;;18.00;99.90;;;;;;5032443;28;20800;-65
2021/06/05 03:54:02;;;;;;;52.30;39.50;;;18.10;99.90;;;;;;5032384;28;20453;-64
2021/06/05 03:56:28;;;;;;;54.87;39.97;;;18.10;99.90;;;;;;5031908;28;20999;-64
2021/06/05 03:58:56;;;;;;;53.57;39.37;;;18.20;99.90;;;;;;5032237;28;20437;-64
2021/06/05 04:01:25;;;;;;;62.00;41.37;;;18.30;99.90;;;;;;5032324;28;20437;-63
2021/06/05 04:03:52;;;;;;;54.87;40.17;;;18.30;99.90;;;;;;5032683;28;20959;-63
2021/06/05 04:06:20;;;;;;;58.37;38.70;;;18.30;99.90;;;;;;5032883;28;20975;-63
2021/06/05 04:08:47;;;;;;;56.30;41.73;;;18.40;99.90;;;;;;5020691;28;20457;-64
2021/06/05 04:11:13;;;;;;;54.63;40.97;;;18.40;99.90;;;;;;5020664;28;20453;-64
2021/06/05 04:13:39;;;;;;;56.00;39.67;;;18.40;99.90;;;;;;5020475;28;20456;-64
2021/06/05 04:16:07;;;;;;;58.87;40.87;;;18.40;99.90;;;;;;5020232;28;20485;-64
2021/06/05 04:18:35;;;;;;;68.73;42.73;;;18.40;99.90;;;;;;5020426;28;20452;-64
2021/06/05 04:21:03;;;;;;;54.60;40.50;;;18.50;99.90;;;;;;5020262;28;20449;-64
2021/06/05 04:23:29;;;;;;;59.97;42.60;;;18.50;99.90;;;;;;5020220;28;20455;-64
2021/06/05 04:25:56;;;;;;;61.43;40.10;;;18.50;99.90;;;;;;5020264;28;20469;-64
2021/06/05 04:28:24;;;;;;;61.67;43.07;;;18.60;99.90;;;;;;5020026;28;20444;-64
2021/06/05 04:30:51;;;;;;;51.30;39.60;;;18.60;99.90;;;;;;5020196;28;20965;-63
2021/06/05 04:33:21;;;;;;;55.00;39.40;;;18.60;99.90;;;;;;5020121;28;20449;-63
2021/06/05 04:35:48;;;;;;;53.73;41.30;;;18.70;99.90;;;;;;5019916;28;20515;-63
2021/06/05 04:38:14;;;;;;;52.83;39.07;;;18.70;99.90;;;;;;5019922;28;20449;-64
2021/06/05 04:40:41;;;;;;;58.47;44.40;;;18.70;99.90;;;;;;5020052;28;20916;-64
2021/06/05 04:43:08;;;;;;;51.97;41.60;;;18.80;99.90;;;;;;5020359;28;20464;-63
2021/06/05 04:45:34;;;;;;;51.93;41.20;;;18.80;99.90;;;;;;5019920;28;21257;-64
2021/06/05 04:48:01;;;;;;;56.47;40.63;;;18.80;99.90;;;;;;5019894;28;20919;-63
2021/06/05 04:50:31;;;;;;;54.40;40.43;;;18.80;99.90;;;;;;5021062;28;20788;-64
2021/06/05 04:52:58;;;;;;;56.77;41.43;;;18.80;99.90;;;;;;5024045;28;20449;-63
2021/06/05 04:55:25;;;;;;;56.87;42.20;;;18.90;99.90;;;;;;5024041;28;21096;-63
2021/06/05 04:57:52;;;;;;;56.33;43.83;;;19.00;99.90;;;;;;5023932;28;21327;-64
2021/06/05 05:00:22;;;;;;;48.33;41.40;;;19.10;99.90;;;;;;5024032;28;20445;-63
2021/06/05 05:02:49;;;;;;;51.33;41.53;;;19.20;99.90;;;;;;5024276;28;20503;-63
2021/06/05 05:05:15;;;;;;;53.40;41.00;;;19.30;99.90;;;;;;5023873;28;20456;-62
2021/06/05 05:07:45;;;;;;;49.67;41.70;;;19.40;99.90;;;;;;5023492;28;20457;-63
2021/06/05 05:10:13;;;;;;;47.60;41.50;;;19.40;99.90;;;;;;5024188;28;20607;-63
2021/06/05 05:12:39;;;;;;;45.03;38.67;;;19.50;99.90;;;;;;5024907;28;20894;-63
2021/06/05 05:15:07;;;;;;;41.83;37.33;;;19.50;99.90;;;;;;5026086;28;20455;-63
2021/06/05 05:17:34;;;;;;;45.87;40.50;;;19.50;99.90;;;;;;5025314;28;20493;-64
2021/06/05 05:20:00;;;;;;;46.27;41.07;;;19.60;99.90;;;;;;5023986;28;20460;-63
2021/06/05 05:22:27;;;;;;;43.83;39.23;;;19.70;99.90;;;;;;5023511;28;21269;-62
2021/06/05 05:24:54;;;;;;;46.17;41.40;;;19.60;99.90;;;;;;5023452;28;20449;-62
2021/06/05 05:27:20;;;;;;;50.33;40.37;;;19.60;99.90;;;;;;5023450;28;20514;-62
2021/06/05 05:29:47;;;;;;;43.53;38.93;;;19.60;99.90;;;;;;5023645;28;20902;-63
2021/06/05 05:32:14;;;;;;;43.90;39.47;;;19.50;99.90;;;;;;5023401;28;20452;-63
2021/06/05 05:34:40;;;;;;;44.90;37.03;;;19.50;99.90;;;;;;5023477;28;21256;-63
2021/06/05 05:37:07;;;;;;;46.00;39.17;;;19.50;99.90;;;;;;5023860;28;20500;-63
2021/06/05 05:39:33;;;;;;;42.93;38.40;;;19.60;99.90;;;;;;5029063;28;20464;-63
2021/06/05 05:42:01;;;;;;;45.87;39.37;;;19.90;99.90;;;;;;5034287;28;20527;-63
2021/06/05 05:44:27;;;;;;;39.70;35.77;;;20.20;99.90;;;;;;5033620;28;20456;-63
2021/06/05 05:46:53;;;;;;;40.73;36.40;;;20.40;99.90;;;;;;5033026;28;20593;-63
2021/06/05 05:49:19;;;;;;;38.63;34.93;;;20.50;99.90;;;;;;5033425;28;20452;-63
2021/06/05 05:51:46;;;;;;;42.90;38.53;;;20.70;99.90;;;;;;5033363;28;20456;-63
2021/06/05 05:54:12;;;;;;;38.70;35.00;;;20.90;99.90;;;;;;5033272;28;20456;-63
2021/06/05 05:56:38;;;;;;;41.27;37.23;;;21.10;99.90;;;;;;5032661;28;20484;-63
2021/06/05 05:59:06;;;;;;;39.40;35.70;;;21.20;99.90;;;;;;5033330;28;20452;-63
2021/06/05 06:01:32;;;;;;;40.00;36.50;;;21.30;99.90;;;;;;5033172;28;20828;-63
2021/06/05 06:03:59;;;;;;;39.03;35.63;;;21.40;99.90;;;;;;5034276;28;20457;-62
2021/06/05 06:06:26;;;;;;;39.53;36.17;;;21.30;99.90;;;;;;5033855;28;20457;-64
2021/06/05 06:08:54;;;;;;;39.60;36.27;;;21.20;99.90;;;;;;5034146;28;20963;-63
2021/06/05 06:11:20;;;;;;;40.17;36.93;;;21.10;99.90;;;;;;5034082;28;20482;-63
2021/06/05 06:13:47;;;;;;;38.53;35.40;;;21.20;99.90;;;;;;5034001;28;20449;-64
2021/06/05 06:16:16;;;;;;;35.53;32.67;;;21.30;99.90;;;;;;5034237;28;20488;-64
2021/06/05 06:18:43;;;;;;;37.70;34.60;;;21.30;99.90;;;;;;5034159;28;20449;-64
2021/06/05 06:21:13;;;;;;;36.33;33.33;;;21.40;99.90;;;;;;5033872;28;20445;-62
2021/06/05 06:23:41;;;;;;;35.90;33.07;;;21.60;99.90;;;;;;5033801;28;20515;-63
2021/06/05 06:26:12;;;;;;;36.93;33.83;;;21.40;99.90;;;;;;5033703;28;20469;-64
2021/06/05 06:28:41;;;;;;;36.73;33.60;;;21.30;99.90;;;;;;5033824;28;20453;-62
2021/06/05 06:31:09;;;;;;;35.20;31.87;;;21.30;99.90;;;;;;5033647;28;20539;-64
2021/06/05 06:33:36;;;;;;;36.00;32.80;;;21.20;99.90;;;;;;5033671;28;20515;-63
2021/06/05 06:36:04;;;;;;;36.27;33.30;;;21.10;99.90;;;;;;5033243;28;20471;-63
2021/06/05 06:38:35;;;;;;;33.40;30.40;;;21.00;99.90;;;;;;5033628;28;20437;-63
2021/06/05 06:41:03;;;;;;;35.23;32.00;;;20.70;99.90;;;;;;5033605;28;20433;-62
2021/06/05 06:43:30;;;;;;;35.30;32.30;;;20.70;99.90;;;;;;5033542;28;20448;-63
2021/06/05 06:45:57;;;;;;;36.80;33.30;;;20.70;99.90;;;;;;5059650;22;20469;-66
2021/06/05 06:48:24;;;;;;;33.57;30.67;;;20.60;99.90;;;;;;5031841;28;20464;-68
2021/06/05 06:50:51;;;;;;;38.07;34.37;;;20.50;99.90;;;;;;5033070;28;20456;-68
2021/06/05 06:53:19;;;;;;;34.20;31.10;;;20.50;99.90;;;;;;5033112;28;20453;-68
2021/06/05 06:55:45;;;;;;;35.37;32.07;;;20.50;99.90;;;;;;5033112;28;20448;-68
2021/06/05 06:58:12;;;;;;;36.57;32.87;;;20.50;99.90;;;;;;5032832;28;20484;-68
2021/06/05 07:00:42;;;;;;;37.50;34.07;;;20.40;99.90;;;;;;5033131;28;20825;-68
2021/06/05 07:03:08;;;;;;;33.73;30.53;;;20.40;99.90;;;;;;5033066;28;20864;-68
2021/06/05 07:05:37;;;;;;;37.43;33.93;;;20.50;99.90;;;;;;5033026;28;20456;-68
2021/06/05 07:08:09;;;;;;;35.20;32.10;;;20.50;99.90;;;;;;5032648;28;20515;-68
2021/06/05 07:10:36;;;;;;;35.43;32.23;;;20.60;99.90;;;;;;5032973;28;20441;-68
2021/06/05 07:13:03;;;;;;;38.37;34.63;;;20.70;99.90;;;;;;5032023;28;20484;-68
2021/06/05 07:15:29;;;;;;;37.73;34.17;;;20.90;99.90;;;;;;5032779;28;20448;-68
2021/06/05 07:17:55;;;;;;;35.77;32.43;;;20.90;99.90;;;;;;5032396;28;20845;-68
2021/06/05 07:20:22;;;;;;;36.03;33.00;;;21.00;99.90;;;;;;5032534;28;20449;-68
2021/06/05 07:22:48;;;;;;;37.90;34.63;;;21.00;99.90;;;;;;5032378;28;20488;-68
2021/06/05 07:25:16;;;;;;;34.77;31.57;;;21.00;99.90;;;;;;5032537;28;20446;-68
2021/06/05 07:27:42;;;;;;;37.30;33.97;;;21.20;99.90;;;;;;5032201;28;20457;-68
2021/06/05 07:30:09;;;;;;;36.97;33.77;;;21.20;99.90;;;;;;5032397;28;20449;-68
2021/06/05 07:32:36;;;;;;;36.60;33.13;;;21.30;99.90;;;;;;5032489;28;20813;-68
2021/06/05 07:35:02;;;;;;;34.07;31.13;;;21.50;99.90;;;;;;5032360;28;20449;-68
2021/06/05 07:37:28;;;;;;;37.63;34.40;;;21.70;99.90;;;;;;5032013;28;20489;-68
2021/06/05 07:39:55;;;;;;;36.70;33.50;;;21.70;99.90;;;;;;5032299;28;20449;-68
2021/06/05 07:42:23;;;;;;;36.07;32.90;;;21.60;99.90;;;;;;5032287;28;20448;-68
2021/06/05 07:44:50;;;;;;;37.27;33.67;;;21.40;99.90;;;;;;5032267;28;20449;-68
2021/06/05 07:47:16;;;;;;;39.77;36.27;;;21.40;99.90;;;;;;5031721;28;20477;-68
2021/06/05 07:49:42;;;;;;;36.23;33.10;;;21.40;99.90;;;;;;5032076;28;20503;-68
2021/06/05 07:52:12;;;;;;;37.63;34.43;;;21.50;99.90;;;;;;5031875;28;20804;-67
2021/06/05 07:54:38;;;;;;;40.73;36.90;;;21.70;99.90;;;;;;5032253;28;20448;-68
2021/06/05 07:57:05;;;;;;;39.73;35.90;;;21.80;99.90;;;;;;5031580;28;20481;-68
2021/06/05 07:59:32;;;;;;;38.27;35.07;;;22.00;99.90;;;;;;5031970;28;20452;-68
2021/06/05 08:01:58;;;;;;;41.13;37.37;;;22.40;99.90;;;;;;5031898;28;20441;-68
2021/06/05 08:04:24;;;;;;;39.43;35.87;;;22.50;99.90;;;;;;5031864;28;20448;-68
2021/06/05 08:06:53;;;;;;;39.47;35.77;;;22.70;99.90;;;;;;5031543;28;20502;-68
2021/06/05 08:09:19;;;;;;;40.87;37.50;;;23.20;99.90;;;;;;5031836;28;20825;-68
2021/06/05 08:11:45;;;;;;;40.30;36.80;;;23.40;99.90;;;;;;5031739;28;20448;-67
2021/06/05 08:14:11;;;;;;;38.67;35.47;;;23.40;99.90;;;;;;5031686;28;20451;-68
2021/06/05 08:16:39;;;;;;;40.57;36.67;;;23.10;99.90;;;;;;5031394;28;20531;-68
2021/06/05 08:19:08;;;;;;;41.23;37.53;;;23.30;99.90;;;;;;5031693;28;20850;-68
2021/06/05 08:21:34;;;;;;;40.60;37.20;;;23.60;99.90;;;;;;5031629;28;20445;-68
2021/06/05 08:24:00;;;;;;;40.90;37.30;;;23.50;99.90;;;;;;5031453;28;20948;-68
2021/06/05 08:26:27;;;;;;;42.03;38.63;;;23.20;99.90;;;;;;5031271;28;20510;-68
2021/06/05 08:28:53;;;;;;;41.23;37.73;;;23.20;99.90;;;;;;5031627;28;20500;-68
2021/06/05 08:31:20;;;;;;;40.70;37.30;;;23.50;99.90;;;;;;5031548;28;20822;-68
2021/06/05 08:33:48;;;;;;;41.43;37.93;;;23.50;99.90;;;;;;5031409;28;20441;-68
2021/06/05 08:36:16;;;;;;;38.30;35.00;;;23.40;99.90;;;;;;5031164;28;20465;-68
2021/06/05 08:38:44;;;;;;;40.00;36.40;;;23.00;99.90;;;;;;5031419;28;20445;-68
2021/06/05 08:41:17;;;;;;;39.47;36.07;;;22.80;99.90;;;;;;5030067;28;20453;-66
2021/06/05 08:43:49;;;;;;;43.77;39.90;;;23.00;99.90;;;;;;5019477;28;20449;-66
2021/06/05 08:46:21;;;;;;;41.73;38.30;;;23.40;99.90;;;;;;5018988;28;20473;-67
2021/06/05 08:48:48;;;;;;;42.77;38.73;;;23.90;99.90;;;;;;5019369;28;20818;-67
2021/06/05 08:51:23;;;;;;;41.50;38.03;;;23.80;99.90;;;;;;5019674;28;21038;-66
2021/06/05 08:53:51;;;;;;;42.43;38.70;;;23.50;99.90;;;;;;5019327;28;20518;-66
2021/06/05 08:56:21;;;;;;;41.30;37.47;;;23.50;99.90;;;;;;5018916;28;20473;-67
2021/06/05 08:58:55;;;;;;;42.97;39.37;;;23.50;99.90;;;;;;5019234;28;20444;-67
2021/06/05 09:01:26;;;;;;;44.47;40.57;;;23.40;99.90;;;;;;5019277;28;20510;-66
2021/06/05 09:03:59;;;;;;;43.07;39.40;;;23.80;99.90;;;;;;5019303;28;20455;-67
2021/06/05 09:06:34;;;;;;;44.10;40.17;;;24.40;99.90;;;;;;5019422;28;21055;-66
2021/06/05 09:09:03;;;;;;;44.50;40.50;;;24.80;99.90;;;;;;5019189;28;20958;-67
2021/06/05 09:11:29;;;;;;;43.53;39.93;;;25.20;99.90;;;;;;5019090;28;20913;-67
2021/06/05 09:13:56;;;;;;;41.93;38.43;;;25.50;99.90;;;;;;5019137;28;21011;-67
2021/06/05 09:16:34;;;;;;;42.10;38.80;;;25.20;99.90;;;;;;5018892;28;20475;-67
2021/06/05 09:19:13;;;;;;;41.80;38.00;;;25.50;99.90;;;;;;5019000;28;20839;-67
2021/06/05 09:21:42;;;;;;;45.33;41.60;;;26.00;99.90;;;;;;5019132;28;20449;-67
2021/06/05 09:24:19;;;;;;;43.63;40.00;;;25.90;99.90;;;;;;5019016;28;20940;-67
2021/06/05 09:27:00;;;;;;;43.70;40.13;;;26.20;99.90;;;;;;5018957;28;20467;-67
2021/06/05 09:29:27;;;;;;;45.83;42.10;;;26.80;99.90;;;;;;5018947;28;20814;-67
2021/06/05 09:31:56;;;;;;;43.40;39.90;;;26.90;99.90;;;;;;5019015;28;20544;-66
2021/06/05 09:34:29;;;;;;;43.90;40.50;;;26.40;99.90;;;;;;5018818;28;20526;-67
2021/06/05 09:36:55;;;;;;;42.40;39.10;;;25.60;99.90;;;;;;5020243;28;20488;-67
2021/06/05 09:39:40;;;;;;;41.07;37.77;;;24.90;99.90;;;;;;5022763;28;20449;-67
2021/06/05 09:42:08;;;;;;;45.27;41.70;;;24.70;99.90;;;;;;5020980;28;20506;-67
2021/06/05 09:44:43;;;;;;;43.47;39.73;;;24.70;99.90;;;;;;5022518;28;20445;-67
2021/06/05 09:47:23;;;;;;;44.30;40.70;;;24.70;99.90;;;;;;5022126;28;20484;-67
2021/06/05 09:49:58;;;;;;;41.20;38.10;;;24.60;99.90;;;;;;5022571;28;20514;-67
2021/06/05 09:52:33;;;;;;;44.03;40.20;;;24.70;99.90;;;;;;5022324;28;20455;-67
2021/06/05 09:55:26;;;;;;;41.93;38.60;;;24.50;99.90;;;;;;5022306;28;20444;-67
2021/06/05 09:57:53;;;;;;;42.70;39.20;;;24.50;99.90;;;;;;5021997;28;20638;-69
2021/06/05 10:00:26;;;;;;;41.50;38.20;;;24.50;99.90;;;;;;5022447;28;20519;-70
2021/06/05 10:02:54;;;;;;;42.20;38.70;;;24.70;99.90;;;;;;5022213;28;20448;-66
2021/06/05 10:05:29;;;;;;;41.83;38.57;;;24.90;99.90;;;;;;5022219;28;20452;-68
2021/06/05 10:07:57;;;;;;;40.30;37.00;;;24.90;99.90;;;;;;5021945;28;20471;-67
2021/06/05 10:10:34;;;;;;;41.70;38.20;;;24.90;99.90;;;;;;5022400;28;20464;-67
2021/06/05 10:13:06;;;;;;;41.10;37.90;;;24.90;99.90;;;;;;5022012;28;20456;-67
2021/06/05 10:15:37;;;;;;;39.70;36.47;;;25.20;99.90;;;;;;5021952;28;20449;-67
2021/06/05 10:18:08;;;;;;;44.83;41.27;;;25.30;99.90;;;;;;5021688;28;20484;-67
2021/06/05 10:20:46;;;;;;;43.67;39.80;;;25.30;99.90;;;;;;5021889;28;20453;-66
2021/06/05 10:23:17;;;;;;;46.00;41.97;;;25.10;99.90;;;;;;5021829;28;20905;-66
2021/06/05 10:25:47;;;;;;;48.53;44.23;;;25.00;99.90;;;;;;5021663;28;20460;-67
2021/06/05 10:28:17;;;;;;;49.07;44.57;;;25.20;99.90;;;;;;5021610;28;20480;-66
2021/06/05 10:30:48;;;;;;;46.87;42.30;;;25.50;99.90;;;;;;5021590;28;20476;-67
2021/06/05 10:33:23;;;;;;;49.43;44.83;;;25.70;99.90;;;;;;5021724;28;20445;-66
2021/06/05 10:35:54;;;;;;;49.57;44.93;;;25.60;99.90;;;;;;5021546;28;20537;-67
2021/06/05 10:38:35;;;;;;;51.33;46.60;;;26.00;99.90;;;;;;5021520;28;20492;-67
2021/06/05 10:41:01;;;;;;;51.13;46.60;;;27.00;99.90;;;;;;5021413;28;20449;-68
2021/06/05 10:43:27;;;;;;;52.80;47.80;;;26.80;99.90;;;;;;5021694;28;21167;-69
2021/06/05 10:45:57;;;;;;;53.07;47.80;;;26.60;99.90;;;;;;5021532;28;20453;-68
2021/06/05 10:48:28;;;;;;;54.37;49.17;;;26.50;99.90;;;;;;5021011;28;20528;-68
2021/06/05 10:51:08;;;;;;;50.00;45.10;;;26.10;99.90;;;;;;5021363;28;20853;-68
2021/06/05 10:53:38;;;;;;;55.33;49.77;;;26.40;99.90;;;;;;5021412;28;20833;-68
2021/06/05 10:56:13;;;;;;;54.70;49.37;;;25.70;99.90;;;;;;5021280;28;20444;-66
2021/06/05 10:58:44;;;;;;;60.83;54.13;;;26.00;99.90;;;;;;5021121;28;20480;-67
2021/06/05 11:01:13;;;;;;;60.87;54.77;;;26.10;99.90;;;;;;5021011;28;20452;-67
2021/06/05 11:03:51;;;;;;;57.93;52.03;;;26.30;99.90;;;;;;5021142;28;20445;-67
2021/06/05 11:06:22;;;;;;;60.67;54.87;;;26.60;99.90;;;;;;5020863;28;20468;-66
2021/06/05 11:08:55;;;;;;;65.03;58.03;;;26.60;99.90;;;;;;5020930;28;20445;-67
2021/06/05 11:11:41;;;;;;;66.93;60.07;;;26.40;99.90;;;;;;5020971;28;20463;-68
2021/06/05 11:14:28;;;;;;;64.20;57.47;;;26.00;99.90;;;;;;5021001;28;20449;-66
2021/06/05 11:17:28;;;;;;;61.00;54.40;;;26.00;99.90;;;;;;5019457;28;20511;-68
2021/06/05 11:20:38;;;;;;;61.80;53.73;;;25.90;99.90;;;;;;5020906;28;20449;-67
2021/06/05 11:23:20;;;;;;;61.77;55.57;;;25.80;99.90;;;;;;5020505;28;20448;-68
2021/06/05 11:25:50;;;;;;;60.37;54.47;;;25.60;99.90;;;;;;5020659;28;20452;-66
2021/06/05 11:28:26;;;;;;;60.27;53.83;;;26.00;99.90;;;;;;5020699;28;20463;-66
2021/06/05 11:30:54;;;;;;;55.60;50.23;;;26.40;99.90;;;;;;5020557;28;20577;-67
2021/06/05 11:33:41;;;;;;;61.87;55.90;;;26.70;99.90;;;;;;5020383;28;20449;-66
2021/06/05 11:36:50;;;;;;;59.60;53.67;;;26.80;99.40;;;;;;5020360;28;21061;-67
2021/06/05 11:39:53;;;;;;;56.80;50.83;;;26.60;99.90;;;;;;4984980;28;20461;-66
2021/06/05 11:42:52;;;;;;;58.60;52.90;;;26.50;99.90;;;;;;4958440;28;20443;-65
2021/06/05 11:45:56;;;;;;;60.27;54.07;;;26.00;99.90;;;;;;4901238;29;20461;-67
2021/06/05 11:48:39;;;;;;;64.27;57.40;;;25.50;99.90;;;;;;4953157;28;20905;-66
2021/06/05 11:51:32;;;;;;;66.33;59.13;;;25.20;99.90;;;;;;5016153;28;20829;-66
2021/06/05 11:54:02;;;;;;;62.93;56.30;;;25.00;99.90;;;;;;5020309;28;20451;-67
2021/06/05 11:56:33;;;;;;;72.63;61.67;;;24.60;99.90;;;;;;5020025;28;20569;-67
2021/06/05 11:59:14;;;;;;;78.33;67.10;;;24.10;99.90;;;;;;5019621;28;20456;-68
2021/06/05 12:01:42;;;;;;;75.70;64.30;;;23.60;99.90;;;;;;5020111;28;20527;-68
2021/06/05 12:04:12;;;;;;;89.80;70.57;;;22.90;99.90;;;;;;5020102;28;20519;-65
2021/06/05 12:06:41;;;;;;;101.50;79.37;;;22.50;99.90;;;;;;5019827;28;20476;-67
2021/06/05 12:09:15;;;;;;;118.20;81.50;;;22.10;99.90;;;;;;5019912;28;20556;-65
2021/06/05 12:11:48;;;;;;;115.33;79.23;;;21.80;99.90;;;;;;5019478;28;20535;-65
2021/06/05 12:14:36;;;;;;;115.30;77.90;;;21.70;99.90;;;;;;5019821;28;20829;-66
2021/06/05 12:17:05;;;;;;;115.50;79.80;;;21.40;99.90;;;;;;5019297;28;20485;-65
2021/06/05 12:19:36;;;;;;;113.70;79.53;;;21.10;99.90;;;;;;5019594;28;20455;-66
2021/06/05 12:22:15;;;;;;;119.40;78.63;;;21.00;99.90;;;;;;5019635;28;20449;-66
2021/06/05 12:24:44;;;;;;;106.97;76.50;;;20.90;99.90;;;;;;5019596;28;20875;-65
2021/06/05 12:27:21;;;;;;;102.70;75.10;;;20.80;99.90;;;;;;5019293;28;20542;-64
2021/06/05 12:29:47;;;;;;;104.30;75.97;;;20.90;99.90;;;;;;5019793;28;20452;-67
2021/06/05 12:32:17;;;;;;;108.20;75.67;;;20.70;99.90;;;;;;5019567;28;21041;-66
2021/06/05 12:34:44;;;;;;;97.80;75.83;;;20.70;99.90;;;;;;5019603;28;20856;-66
2021/06/05 12:37:20;;;;;;;101.53;76.63;;;20.70;99.90;;;;;;5019125;28;20949;-66
2021/06/05 12:39:50;;;;;;;87.83;69.17;;;20.70;99.90;;;;;;5019494;28;21374;-67